createdAt,value
2018-04-07T00:02:19.258Z,3.70
2018-04-07T00:05:21.727Z,3.93
2018-04-07T00:08:24.254Z,3.13
2018-04-07T00:11:26.832Z,3.70
2018-04-07T00:14:29.354Z,3.43
2018-04-07T00:17:31.912Z,3.67
2018-04-07T00:20:34.395Z,3.90
2018-04-07T00:23:36.909Z,3.77
2018-04-07T00:26:39.382Z,3.80
2018-04-07T00:29:41.963Z,3.60
2018-04-07T00:32:44.518Z,3.63
2018-04-07T00:35:46.954Z,3.60
2018-04-07T00:38:49.531Z,3.60
2018-04-07T00:41:52.114Z,4.10
2018-04-07T00:44:54.598Z,3.47
2018-04-07T00:47:57.088Z,3.67
2018-04-07T00:50:59.593Z,3.93
2018-04-07T00:54:02.061Z,3.90
2018-04-07T00:57:04.581Z,4.00
2018-04-07T01:00:07.173Z,4.00
2018-04-07T01:03:09.742Z,4.13
2018-04-07T01:06:12.181Z,3.73
2018-04-07T01:09:14.684Z,3.70
2018-04-07T01:12:17.199Z,3.57
2018-04-07T01:15:19.723Z,3.83
2018-04-07T01:18:22.225Z,3.60
2018-04-07T01:21:24.674Z,3.60
2018-04-07T01:24:27.163Z,3.83
2018-04-07T01:27:29.629Z,3.53
2018-04-07T01:30:32.193Z,3.97
2018-04-07T01:33:34.660Z,4.17
2018-04-07T01:36:37.190Z,3.60
2018-04-07T01:39:39.751Z,3.70
2018-04-07T01:42:42.270Z,3.90
2018-04-07T01:45:44.744Z,3.70
2018-04-07T01:48:47.180Z,3.97
2018-04-07T01:51:49.727Z,3.70
2018-04-07T01:54:52.215Z,4.40
2018-04-07T01:57:54.660Z,4.40
2018-04-07T02:00:57.189Z,3.57
2018-04-07T02:03:59.655Z,4.30
2018-04-07T02:07:02.234Z,3.77
2018-04-07T02:10:04.690Z,3.80
2018-04-07T02:13:07.187Z,3.90
2018-04-07T02:16:09.659Z,3.73
2018-04-07T02:19:12.130Z,4.33
2018-04-07T02:22:14.643Z,4.23
2018-04-07T02:25:17.101Z,4.00
2018-04-07T02:28:19.664Z,4.00
2018-04-07T02:31:22.202Z,3.70
2018-04-07T02:34:24.641Z,4.40
2018-04-07T02:37:27.168Z,4.43
2018-04-07T02:40:29.626Z,4.80
2018-04-07T02:43:32.100Z,4.17
2018-04-07T02:46:34.609Z,4.30
2018-04-07T02:49:37.110Z,4.33
2018-04-07T02:52:39.560Z,4.30
2018-04-07T02:55:42.036Z,4.10
2018-04-07T02:58:44.516Z,4.43
2018-04-07T03:01:47.034Z,4.33
2018-04-07T03:04:49.592Z,4.60
2018-04-07T03:07:52.077Z,3.80
2018-04-07T03:10:54.516Z,4.50
2018-04-07T03:13:57.080Z,4.57
2018-04-07T03:16:59.641Z,4.37
2018-04-07T03:20:02.206Z,3.97
2018-04-07T03:23:04.663Z,4.60
2018-04-07T03:26:07.151Z,4.60
2018-04-07T03:29:09.607Z,4.20
2018-04-07T03:32:12.775Z,5.17
2018-04-07T03:35:16.044Z,4.50
2018-04-07T03:38:18.570Z,4.60
2018-04-07T03:41:22.466Z,4.97
2018-04-07T03:44:25.054Z,4.17
2018-04-07T03:47:27.527Z,4.33
2018-04-07T03:50:30.196Z,4.80
2018-04-07T03:53:32.748Z,4.27
2018-04-07T03:56:35.315Z,4.80
2018-04-07T03:59:37.831Z,4.90
2018-04-07T04:02:40.338Z,4.17
2018-04-07T04:05:42.819Z,5.10
2018-04-07T04:08:45.282Z,4.27
2018-04-07T04:11:47.722Z,3.83
2018-04-07T04:14:50.284Z,4.97
2018-04-07T04:17:52.850Z,4.57
2018-04-07T04:20:55.351Z,4.40
2018-04-07T04:23:57.826Z,4.20
2018-04-07T04:27:00.323Z,4.57
2018-04-07T04:30:02.800Z,4.00
2018-04-07T04:33:05.357Z,3.93
2018-04-07T04:36:07.820Z,4.70
2018-04-07T04:39:10.376Z,4.60
2018-04-07T04:42:12.937Z,4.53
2018-04-07T04:45:15.521Z,3.80
2018-04-07T04:48:18.016Z,4.20
2018-04-07T04:51:20.483Z,5.03
2018-04-07T04:54:23.042Z,4.83
2018-04-07T04:57:25.532Z,4.00
2018-04-07T05:00:29.140Z,4.67
2018-04-07T05:03:31.903Z,4.37
2018-04-07T05:06:34.454Z,4.70
2018-04-07T05:09:37.027Z,4.30
2018-04-07T05:12:39.536Z,4.60
2018-04-07T05:15:42.038Z,4.27
2018-04-07T05:18:44.506Z,4.40
2018-04-07T05:21:47.000Z,4.30
2018-04-07T05:24:49.525Z,4.80
2018-04-07T05:27:52.062Z,4.27
2018-04-07T05:30:54.528Z,4.33
2018-04-07T05:33:57.043Z,4.80
2018-04-07T05:36:59.556Z,4.87
2018-04-07T05:40:02.042Z,4.30
2018-04-07T05:43:04.517Z,5.23
2018-04-07T05:46:07.095Z,4.60
2018-04-07T05:49:09.598Z,4.90
2018-04-07T05:52:12.122Z,5.30
2018-04-07T05:55:14.640Z,5.13
2018-04-07T05:58:17.158Z,5.20
2018-04-07T06:01:19.633Z,5.00
2018-04-07T06:04:22.141Z,5.17
2018-04-07T06:07:24.642Z,4.90
2018-04-07T06:10:27.153Z,5.70
2018-04-07T06:13:29.649Z,5.10
2018-04-07T06:16:32.097Z,5.13
2018-04-07T06:19:34.742Z,5.17
2018-04-07T06:22:37.203Z,5.53
2018-04-07T06:25:39.684Z,5.30
2018-04-07T06:28:42.196Z,4.93
2018-04-07T06:31:44.658Z,5.40
2018-04-07T06:34:47.263Z,5.47
2018-04-07T06:37:49.761Z,5.00
2018-04-07T06:40:57.303Z,5.07
2018-04-07T06:43:59.753Z,4.73
2018-04-07T06:47:02.264Z,5.40
2018-04-07T06:50:04.707Z,5.87
2018-04-07T06:53:07.192Z,6.03
2018-04-07T06:56:09.653Z,5.20
2018-04-07T06:59:12.166Z,5.53
2018-04-07T07:02:14.614Z,5.50
2018-04-07T07:05:17.111Z,5.90
2018-04-07T07:08:19.637Z,5.83
2018-04-07T07:11:22.156Z,5.23
2018-04-07T07:14:24.641Z,5.47
2018-04-07T07:17:27.167Z,5.80
2018-04-07T07:20:29.713Z,5.57
2018-04-07T07:23:32.194Z,5.10
2018-04-07T07:26:34.664Z,5.60
2018-04-07T07:29:37.281Z,6.10
2018-04-07T07:32:39.803Z,6.13
2018-04-07T07:35:42.277Z,5.60
2018-04-07T07:38:44.963Z,5.40
2018-04-07T07:41:47.445Z,5.60
2018-04-07T07:44:50.004Z,6.10
2018-04-07T07:47:52.507Z,6.40
2018-04-07T07:50:55.042Z,5.07
2018-04-07T07:53:57.618Z,5.53
2018-04-07T07:57:00.239Z,5.87
2018-04-07T08:00:02.790Z,5.30
2018-04-07T08:03:05.318Z,6.17
2018-04-07T08:06:07.814Z,6.40
2018-04-07T08:09:10.240Z,6.17
2018-04-07T08:12:12.744Z,6.37
2018-04-07T08:15:15.213Z,5.80
2018-04-07T08:18:17.827Z,5.70
2018-04-07T08:21:20.335Z,5.57
2018-04-07T08:24:22.885Z,5.90
2018-04-07T08:27:25.386Z,5.93
2018-04-07T08:30:27.904Z,6.20
2018-04-07T08:33:30.419Z,6.27
2018-04-07T08:36:32.960Z,6.13
2018-04-07T08:39:35.460Z,6.20
2018-04-07T08:42:39.064Z,6.37
2018-04-07T08:45:41.608Z,6.43
2018-04-07T08:48:44.132Z,6.20
2018-04-07T08:51:46.614Z,7.77
2018-04-07T08:54:49.095Z,6.77
2018-04-07T08:57:51.699Z,6.60
2018-04-07T09:00:54.323Z,6.80
2018-04-07T09:03:56.848Z,7.07
2018-04-07T09:06:59.351Z,7.13
2018-04-07T09:10:01.824Z,6.93
2018-04-07T09:13:04.309Z,6.50
2018-04-07T09:16:06.794Z,6.30
2018-04-07T09:19:09.339Z,6.93
2018-04-07T09:22:11.915Z,6.80
2018-04-07T09:25:14.459Z,6.83
2018-04-07T09:28:16.943Z,7.20
2018-04-07T09:31:25.413Z,6.70
2018-04-07T09:34:27.874Z,6.87
2018-04-07T09:37:30.409Z,7.03
2018-04-07T09:40:33.004Z,7.00
2018-04-07T09:43:35.490Z,7.00
2018-04-07T09:46:37.963Z,7.33
2018-04-07T09:49:40.519Z,7.80
2018-04-07T09:52:43.026Z,7.43
2018-04-07T09:55:45.541Z,7.77
2018-04-07T09:58:48.006Z,7.20
2018-04-07T10:01:50.476Z,7.30
2018-04-07T10:04:52.971Z,7.60
2018-04-07T10:07:56.607Z,7.50
2018-04-07T10:10:59.191Z,8.13
2018-04-07T10:14:01.725Z,7.73
2018-04-07T10:17:04.261Z,7.63
2018-04-07T10:20:06.810Z,7.67
2018-04-07T10:23:09.324Z,7.97
2018-04-07T10:26:12.072Z,8.20
2018-04-07T10:29:14.545Z,8.37
2018-04-07T10:32:17.046Z,7.60
2018-04-07T10:35:19.586Z,8.00
2018-04-07T10:38:22.066Z,7.30
2018-04-07T10:41:24.550Z,7.17
2018-04-07T10:44:27.130Z,8.33
2018-04-07T10:47:29.573Z,8.07
2018-04-07T10:50:32.115Z,8.40
2018-04-07T10:53:34.626Z,9.07
2018-04-07T10:56:37.116Z,8.10
2018-04-07T10:59:39.617Z,8.23
2018-04-07T11:02:42.102Z,7.80
2018-04-07T11:05:44.760Z,8.17
2018-04-07T11:08:47.242Z,8.30
2018-04-07T11:11:49.767Z,7.77
2018-04-07T11:14:52.243Z,7.47
2018-04-07T11:17:54.735Z,8.40
2018-04-07T11:20:57.206Z,8.10
2018-04-07T11:23:59.722Z,8.33
2018-04-07T11:27:02.322Z,8.00
2018-04-07T11:30:04.855Z,8.53
2018-04-07T11:33:07.411Z,8.17
2018-04-07T11:36:09.872Z,8.60
2018-04-07T11:39:12.346Z,7.77
2018-04-07T11:42:14.896Z,9.10
2018-04-07T11:45:17.398Z,8.50
2018-04-07T11:48:19.892Z,8.37
2018-04-07T11:51:22.401Z,8.37
2018-04-07T11:54:24.895Z,7.70
2018-04-07T11:57:27.412Z,9.10
2018-04-07T12:00:29.984Z,8.70
2018-04-07T12:03:32.462Z,8.83
2018-04-07T12:06:34.985Z,8.40
2018-04-07T12:09:37.557Z,8.63
2018-04-07T12:12:40.047Z,7.63
2018-04-07T12:15:42.622Z,8.40
2018-04-07T12:18:45.171Z,8.73
2018-04-07T12:21:47.716Z,9.00
2018-04-07T12:24:50.170Z,9.00
2018-04-07T12:27:52.732Z,8.80
2018-04-07T12:30:55.294Z,9.00
2018-04-07T12:33:57.879Z,9.57
2018-04-07T12:37:00.373Z,9.20
2018-04-07T12:40:02.838Z,8.67
2018-04-07T12:43:05.346Z,9.30
2018-04-07T12:46:07.817Z,8.40
2018-04-07T12:49:10.363Z,8.83
2018-04-07T12:52:12.883Z,8.90
2018-04-07T12:55:15.483Z,9.00
2018-04-07T12:58:17.981Z,8.77
2018-04-07T13:01:20.444Z,9.57
2018-04-07T13:04:23.057Z,8.80
2018-04-07T13:07:25.547Z,8.80
2018-04-07T13:10:28.022Z,9.10
2018-04-07T13:13:31.505Z,8.83
2018-04-07T13:16:33.983Z,9.27
2018-04-07T13:19:36.607Z,9.43
2018-04-07T13:22:39.166Z,8.90
2018-04-07T13:25:41.672Z,9.33
2018-04-07T13:28:44.156Z,8.90
2018-04-07T13:31:46.757Z,8.70
2018-04-07T13:34:49.223Z,8.47
2018-04-07T13:37:51.727Z,8.80
2018-04-07T13:40:54.234Z,8.63
2018-04-07T13:43:56.741Z,9.10
2018-04-07T13:46:59.218Z,9.13
2018-04-07T13:50:01.723Z,9.10
2018-04-07T13:53:05.021Z,9.00
2018-04-07T13:56:07.562Z,9.67
2018-04-07T13:59:10.074Z,8.80
2018-04-07T14:02:12.682Z,8.93
2018-04-07T14:05:15.226Z,9.43
2018-04-07T14:08:18.729Z,9.10
2018-04-07T14:11:21.251Z,9.60
2018-04-07T14:14:23.784Z,8.77
2018-04-07T14:17:26.342Z,9.10
2018-04-07T14:20:28.884Z,9.77
2018-04-07T14:23:31.382Z,9.80
2018-04-07T14:26:33.907Z,11.20
2018-04-07T14:29:36.418Z,12.23
2018-04-07T14:32:38.894Z,12.47
2018-04-07T14:35:41.408Z,13.30
2018-04-07T14:38:43.958Z,12.37
2018-04-07T14:41:46.557Z,13.03
2018-04-07T14:44:49.103Z,13.53
2018-04-07T14:47:51.622Z,12.60
2018-04-07T14:50:54.109Z,12.67
2018-04-07T14:53:56.633Z,12.00
2018-04-07T14:56:59.159Z,11.73
2018-04-07T15:00:01.614Z,11.70
2018-04-07T15:03:04.124Z,11.47
2018-04-07T15:06:06.774Z,11.40
2018-04-07T15:09:09.294Z,11.03
2018-04-07T15:12:11.834Z,10.80
2018-04-07T15:15:14.360Z,10.93
2018-04-07T15:18:16.852Z,10.97
2018-04-07T15:21:19.423Z,10.53
2018-04-07T15:24:22.059Z,11.10
2018-04-07T15:27:24.584Z,11.20
2018-04-07T15:30:27.209Z,11.37
2018-04-07T15:33:29.707Z,10.50
2018-04-07T15:36:32.297Z,10.80
2018-04-07T15:39:34.898Z,11.33
2018-04-07T15:42:37.472Z,10.50
2018-04-07T15:45:40.030Z,10.23
2018-04-07T15:48:42.530Z,10.20
2018-04-07T15:51:44.969Z,11.00
2018-04-07T15:54:48.432Z,9.00
2018-04-07T15:57:50.999Z,9.67
2018-04-07T16:00:53.467Z,9.40
2018-04-07T16:03:55.935Z,9.87
2018-04-07T16:06:58.419Z,9.90
2018-04-07T16:10:01.053Z,10.20
2018-04-07T16:13:03.572Z,9.60
2018-04-07T16:16:06.091Z,9.90
2018-04-07T16:19:09.550Z,9.50
2018-04-07T16:22:12.019Z,10.47
2018-04-07T16:25:14.520Z,8.50
2018-04-07T16:28:17.130Z,9.17
2018-04-07T16:31:20.488Z,9.70
2018-04-07T16:34:23.001Z,9.90
2018-04-07T16:37:25.450Z,9.63
2018-04-07T16:40:28.000Z,8.63
2018-04-07T16:43:30.575Z,8.90
2018-04-07T16:46:33.131Z,9.57
2018-04-07T16:49:35.676Z,8.70
2018-04-07T16:52:38.184Z,8.40
2018-04-07T16:55:40.680Z,8.43
2018-04-07T16:58:43.220Z,7.63
2018-04-07T17:01:45.739Z,8.30
2018-04-07T17:04:48.315Z,7.10
2018-04-07T17:07:50.865Z,7.43
2018-04-07T17:10:53.390Z,7.20
2018-04-07T17:13:56.094Z,7.37
2018-04-07T17:16:58.668Z,6.53
2018-04-07T17:20:01.165Z,6.80
2018-04-07T17:23:03.670Z,6.40
2018-04-07T17:26:06.175Z,6.40
2018-04-07T17:29:08.677Z,6.10
2018-04-07T17:32:11.214Z,6.10
2018-04-07T17:35:13.744Z,6.07
2018-04-07T17:38:16.323Z,6.20
2018-04-07T17:41:20.076Z,5.80
2018-04-07T17:44:22.559Z,6.17
2018-04-07T17:47:25.799Z,5.77
2018-04-07T17:50:28.411Z,5.97
2018-04-07T17:53:30.862Z,6.13
2018-04-07T17:56:33.379Z,5.87
2018-04-07T17:59:35.954Z,6.20
2018-04-07T18:02:38.480Z,5.40
2018-04-07T18:05:40.994Z,6.00
2018-04-07T18:08:43.495Z,6.20
2018-04-07T18:11:46.013Z,6.60
2018-04-07T18:14:48.575Z,6.50
2018-04-07T18:17:51.231Z,6.40
2018-04-07T18:20:53.914Z,6.63
2018-04-07T18:23:56.470Z,6.93
2018-04-07T18:26:59.147Z,6.90
2018-04-07T18:30:01.681Z,6.63
2018-04-07T18:33:04.261Z,6.57
2018-04-07T18:36:06.736Z,6.37
2018-04-07T18:39:09.285Z,6.20
2018-04-07T18:42:11.840Z,7.73
2018-04-07T18:45:14.354Z,6.77
2018-04-07T18:48:16.980Z,6.70
2018-04-07T18:51:19.487Z,6.20
2018-04-07T18:54:21.956Z,6.70
2018-04-07T18:57:24.522Z,6.40
2018-04-07T19:00:27.035Z,7.40
2018-04-07T19:03:29.564Z,7.47
2018-04-07T19:06:32.048Z,7.50
2018-04-07T19:09:34.626Z,7.20
2018-04-07T19:12:37.273Z,7.13
2018-04-07T19:15:39.860Z,8.13
2018-04-07T19:18:42.406Z,7.00
2018-04-07T19:21:44.925Z,7.30
2018-04-07T19:24:47.392Z,6.80
2018-04-07T19:27:49.902Z,7.40
2018-04-07T19:30:52.442Z,7.67
2018-04-07T19:33:54.962Z,6.60
2018-04-07T19:36:57.467Z,6.70
2018-04-07T19:39:59.977Z,6.60
2018-04-07T19:43:02.542Z,8.00
2018-04-07T19:46:05.076Z,7.30
2018-04-07T19:49:07.610Z,7.33
2018-04-07T19:52:10.217Z,6.97
2018-04-07T19:55:12.749Z,6.83
2018-04-07T19:58:15.307Z,7.23
2018-04-07T20:01:18.128Z,6.50
2018-04-07T20:04:20.610Z,6.80
2018-04-07T20:07:23.175Z,7.60
2018-04-07T20:10:25.754Z,7.57
2018-04-07T20:13:29.244Z,6.50
2018-04-07T20:16:31.804Z,6.50
2018-04-07T20:19:34.477Z,6.20
2018-04-07T20:22:36.993Z,6.90
2018-04-07T20:25:39.533Z,6.87
2018-04-07T20:28:41.990Z,5.80
2018-04-07T20:31:44.548Z,6.13
2018-04-07T20:34:47.101Z,5.73
2018-04-07T20:37:49.690Z,4.83
2018-04-07T20:40:56.024Z,6.00
2018-04-07T20:43:58.579Z,6.10
2018-04-07T20:47:01.066Z,4.70
2018-04-07T20:50:03.619Z,5.17
2018-04-07T20:53:06.138Z,4.70
2018-04-07T20:56:08.662Z,5.00
2018-04-07T20:59:11.207Z,4.80
2018-04-07T21:02:13.724Z,5.03
2018-04-07T21:05:16.238Z,5.03
2018-04-07T21:08:18.864Z,5.30
2018-04-07T21:11:21.382Z,5.40
2018-04-07T21:14:24.095Z,4.53
2018-04-07T21:17:26.626Z,4.50
2018-04-07T21:20:29.132Z,4.77
2018-04-07T21:23:31.635Z,4.57
2018-04-07T21:26:34.129Z,4.97
2018-04-07T21:29:36.634Z,4.47
2018-04-07T21:32:39.159Z,4.53
2018-04-07T21:35:41.651Z,5.27
2018-04-07T21:38:44.228Z,4.60
2018-04-07T21:41:46.754Z,4.77
2018-04-07T21:44:49.233Z,4.73
2018-04-07T21:47:51.713Z,5.00
2018-04-07T21:50:54.243Z,5.03
2018-04-07T21:53:56.738Z,5.20
2018-04-07T21:56:59.254Z,4.77
2018-04-07T22:00:01.763Z,4.80
2018-04-07T22:03:04.315Z,4.60
2018-04-07T22:06:07.099Z,5.10
2018-04-07T22:09:09.649Z,4.67
2018-04-07T22:12:12.112Z,4.73
2018-04-07T22:15:14.657Z,4.90
2018-04-07T22:18:17.245Z,5.07
2018-04-07T22:21:19.820Z,4.97
2018-04-07T22:24:22.344Z,5.20
2018-04-07T22:27:24.874Z,4.47
2018-04-07T22:30:27.391Z,4.80
2018-04-07T22:33:29.872Z,4.93
2018-04-07T22:36:32.455Z,4.97
2018-04-07T22:39:34.975Z,4.90
2018-04-07T22:42:37.455Z,5.20
2018-04-07T22:45:40.003Z,5.40
2018-04-07T22:48:42.530Z,4.77
2018-04-07T22:51:45.049Z,6.03
2018-04-07T22:54:47.560Z,5.47
2018-04-07T22:57:50.088Z,5.73
2018-04-07T23:00:52.661Z,5.80
2018-04-07T23:03:55.213Z,5.10
2018-04-07T23:06:57.675Z,5.00
2018-04-07T23:10:00.217Z,5.63
2018-04-07T23:13:02.754Z,5.83
2018-04-07T23:16:05.202Z,5.30
2018-04-07T23:19:09.235Z,5.37
2018-04-07T23:22:12.537Z,4.90
2018-04-07T23:25:15.097Z,5.40
2018-04-07T23:28:17.586Z,5.70
2018-04-07T23:31:20.139Z,4.90
2018-04-07T23:34:22.629Z,4.93
2018-04-07T23:37:25.129Z,5.87
2018-04-07T23:40:27.639Z,5.27
2018-04-07T23:43:30.153Z,5.37
2018-04-07T23:46:33.968Z,5.83
2018-04-07T23:49:36.506Z,4.80
2018-04-07T23:52:39.544Z,5.10
2018-04-07T23:55:42.074Z,5.20
2018-04-07T23:58:44.641Z,5.47
